sensor_id;sensor_type;location;lat;lon;timestamp;P1;durP1;ratioP1;P2;durP2;ratioP2
71383;SDS011;67558;52.166;5.004;2023-04-06T00:00:08;11.07;;;7.55;;
71383;SDS011;67558;52.166;5.004;2023-04-06T00:02:34;11.77;;;7.30;;
71383;SDS011;67558;52.166;5.004;2023-04-06T00:05:00;9.38;;;6.95;;
71383;SDS011;67558;52.166;5.004;2023-04-06T00:07:25;10.15;;;6.72;;
71383;SDS011;67558;52.166;5.004;2023-04-06T00:09:51;11.27;;;6.18;;
71383;SDS011;67558;52.166;5.004;2023-04-06T00:12:16;9.30;;;6.50;;
71383;SDS011;67558;52.166;5.004;2023-04-06T00:14:42;8.63;;;6.57;;
71383;SDS011;67558;52.166;5.004;2023-04-06T00:17:07;8.40;;;5.43;;
71383;SDS011;67558;52.166;5.004;2023-04-06T00:19:33;8.85;;;5.95;;
71383;SDS011;67558;52.166;5.004;2023-04-06T00:21:58;8.45;;;5.63;;
71383;SDS011;67558;52.166;5.004;2023-04-06T00:24:24;10.65;;;6.53;;
71383;SDS011;67558;52.166;5.004;2023-04-06T00:26:53;12.38;;;8.30;;
71383;SDS011;67558;52.166;5.004;2023-04-06T00:29:19;10.23;;;6.47;;
71383;SDS011;67558;52.166;5.004;2023-04-06T00:31:44;11.95;;;7.13;;
71383;SDS011;67558;52.166;5.004;2023-04-06T00:34:10;11.20;;;6.88;;
71383;SDS011;67558;52.166;5.004;2023-04-06T00:36:35;10.63;;;6.78;;
71383;SDS011;67558;52.166;5.004;2023-04-06T00:39:00;10.48;;;5.32;;
71383;SDS011;67558;52.166;5.004;2023-04-06T00:41:26;10.07;;;6.53;;
71383;SDS011;67558;52.166;5.004;2023-04-06T00:43:51;9.95;;;6.40;;
71383;SDS011;67558;52.166;5.004;2023-04-06T00:46:17;7.57;;;5.70;;
71383;SDS011;67558;52.166;5.004;2023-04-06T00:48:42;11.90;;;7.95;;
71383;SDS011;67558;52.166;5.004;2023-04-06T00:51:08;10.27;;;6.53;;
71383;SDS011;67558;52.166;5.004;2023-04-06T00:53:33;10.40;;;6.35;;
71383;SDS011;67558;52.166;5.004;2023-04-06T00:55:59;9.27;;;6.22;;
71383;SDS011;67558;52.166;5.004;2023-04-06T00:58:24;10.40;;;6.57;;
71383;SDS011;67558;52.166;5.004;2023-04-06T01:00:49;6.60;;;5.88;;
71383;SDS011;67558;52.166;5.004;2023-04-06T01:03:15;10.75;;;6.32;;
71383;SDS011;67558;52.166;5.004;2023-04-06T01:05:41;8.98;;;6.15;;
71383;SDS011;67558;52.166;5.004;2023-04-06T01:08:07;10.07;;;5.68;;
71383;SDS011;67558;52.166;5.004;2023-04-06T01:10:32;8.98;;;6.30;;
71383;SDS011;67558;52.166;5.004;2023-04-06T01:12:58;12.73;;;7.60;;
71383;SDS011;67558;52.166;5.004;2023-04-06T01:15:23;7.57;;;5.80;;
71383;SDS011;67558;52.166;5.004;2023-04-06T01:17:51;10.88;;;6.13;;
71383;SDS011;67558;52.166;5.004;2023-04-06T01:20:16;7.97;;;5.93;;
71383;SDS011;67558;52.166;5.004;2023-04-06T01:22:42;11.75;;;5.57;;
71383;SDS011;67558;52.166;5.004;2023-04-06T01:25:07;9.60;;;7.07;;
71383;SDS011;67558;52.166;5.004;2023-04-06T01:27:33;10.23;;;7.20;;
71383;SDS011;67558;52.166;5.004;2023-04-06T01:29:59;9.25;;;5.88;;
71383;SDS011;67558;52.166;5.004;2023-04-06T01:32:24;10.60;;;6.53;;
71383;SDS011;67558;52.166;5.004;2023-04-06T01:34:50;7.68;;;6.25;;
71383;SDS011;67558;52.166;5.004;2023-04-06T01:37:15;8.00;;;6.93;;
71383;SDS011;67558;52.166;5.004;2023-04-06T01:39:42;6.80;;;5.03;;
71383;SDS011;67558;52.166;5.004;2023-04-06T01:42:07;9.50;;;5.60;;
71383;SDS011;67558;52.166;5.004;2023-04-06T01:44:33;10.07;;;6.50;;
71383;SDS011;67558;52.166;5.004;2023-04-06T01:46:58;10.40;;;5.25;;
71383;SDS011;67558;52.166;5.004;2023-04-06T01:49:23;10.60;;;6.28;;
71383;SDS011;67558;52.166;5.004;2023-04-06T01:51:49;7.50;;;5.72;;
71383;SDS011;67558;52.166;5.004;2023-04-06T01:54:15;11.02;;;7.60;;
71383;SDS011;67558;52.166;5.004;2023-04-06T01:56:40;10.48;;;6.00;;
71383;SDS011;67558;52.166;5.004;2023-04-06T01:59:06;9.07;;;6.32;;
71383;SDS011;67558;52.166;5.004;2023-04-06T02:01:31;13.05;;;6.03;;
71383;SDS011;67558;52.166;5.004;2023-04-06T02:03:56;7.40;;;5.88;;
71383;SDS011;67558;52.166;5.004;2023-04-06T02:06:22;9.02;;;5.53;;
71383;SDS011;67558;52.166;5.004;2023-04-06T02:08:47;8.10;;;5.40;;
71383;SDS011;67558;52.166;5.004;2023-04-06T02:11:12;11.13;;;7.93;;
71383;SDS011;67558;52.166;5.004;2023-04-06T02:13:38;11.55;;;5.43;;
71383;SDS011;67558;52.166;5.004;2023-04-06T02:16:03;7.00;;;4.90;;
71383;SDS011;67558;52.166;5.004;2023-04-06T02:18:30;11.07;;;6.13;;
71383;SDS011;67558;52.166;5.004;2023-04-06T02:20:56;9.55;;;5.57;;
71383;SDS011;67558;52.166;5.004;2023-04-06T02:23:21;7.43;;;5.70;;
71383;SDS011;67558;52.166;5.004;2023-04-06T02:25:46;9.40;;;6.43;;
71383;SDS011;67558;52.166;5.004;2023-04-06T02:28:12;10.95;;;6.35;;
71383;SDS011;67558;52.166;5.004;2023-04-06T02:30:37;9.50;;;5.93;;
71383;SDS011;67558;52.166;5.004;2023-04-06T02:33:03;7.55;;;5.03;;
71383;SDS011;67558;52.166;5.004;2023-04-06T02:35:29;12.25;;;7.30;;
71383;SDS011;67558;52.166;5.004;2023-04-06T02:37:55;10.60;;;6.53;;
71383;SDS011;67558;52.166;5.004;2023-04-06T02:40:20;6.72;;;4.95;;
71383;SDS011;67558;52.166;5.004;2023-04-06T02:42:46;7.05;;;6.03;;
71383;SDS011;67558;52.166;5.004;2023-04-06T02:45:11;9.70;;;6.00;;
71383;SDS011;67558;52.166;5.004;2023-04-06T02:47:37;7.72;;;5.75;;
71383;SDS011;67558;52.166;5.004;2023-04-06T02:50:02;9.68;;;5.65;;
71383;SDS011;67558;52.166;5.004;2023-04-06T02:52:28;8.73;;;5.45;;
71383;SDS011;67558;52.166;5.004;2023-04-06T02:54:53;8.50;;;5.50;;
71383;SDS011;67558;52.166;5.004;2023-04-06T02:57:18;8.18;;;6.70;;
71383;SDS011;67558;52.166;5.004;2023-04-06T02:59:44;7.32;;;5.10;;
71383;SDS011;67558;52.166;5.004;2023-04-06T03:02:10;10.18;;;6.13;;
71383;SDS011;67558;52.166;5.004;2023-04-06T03:04:35;8.48;;;6.40;;
71383;SDS011;67558;52.166;5.004;2023-04-06T03:07:00;8.57;;;6.97;;
71383;SDS011;67558;52.166;5.004;2023-04-06T03:09:26;11.50;;;6.80;;
71383;SDS011;67558;52.166;5.004;2023-04-06T03:11:52;9.77;;;6.97;;
71383;SDS011;67558;52.166;5.004;2023-04-06T03:14:17;8.48;;;6.38;;
71383;SDS011;67558;52.166;5.004;2023-04-06T03:16:46;6.80;;;5.88;;
71383;SDS011;67558;52.166;5.004;2023-04-06T03:19:12;8.23;;;6.57;;
71383;SDS011;67558;52.166;5.004;2023-04-06T03:21:37;10.25;;;6.30;;
71383;SDS011;67558;52.166;5.004;2023-04-06T03:24:03;8.88;;;6.22;;
71383;SDS011;67558;52.166;5.004;2023-04-06T03:26:29;13.20;;;8.23;;
71383;SDS011;67558;52.166;5.004;2023-04-06T03:28:55;7.35;;;5.53;;
71383;SDS011;67558;52.166;5.004;2023-04-06T03:31:20;8.45;;;7.05;;
71383;SDS011;67558;52.166;5.004;2023-04-06T03:33:46;8.75;;;6.30;;
71383;SDS011;67558;52.166;5.004;2023-04-06T03:36:11;8.70;;;6.07;;
71383;SDS011;67558;52.166;5.004;2023-04-06T03:38:36;11.10;;;7.53;;
71383;SDS011;67558;52.166;5.004;2023-04-06T03:41:02;11.60;;;6.60;;
71383;SDS011;67558;52.166;5.004;2023-04-06T03:43:27;8.57;;;6.05;;
71383;SDS011;67558;52.166;5.004;2023-04-06T03:45:52;10.40;;;7.68;;
71383;SDS011;67558;52.166;5.004;2023-04-06T03:48:18;11.80;;;6.20;;
71383;SDS011;67558;52.166;5.004;2023-04-06T03:50:43;15.85;;;7.15;;
71383;SDS011;67558;52.166;5.004;2023-04-06T03:53:09;11.15;;;6.60;;
71383;SDS011;67558;52.166;5.004;2023-04-06T03:55:35;13.25;;;6.63;;
71383;SDS011;67558;52.166;5.004;2023-04-06T03:58:01;12.15;;;6.40;;
71383;SDS011;67558;52.166;5.004;2023-04-06T04:00:27;13.90;;;8.38;;
71383;SDS011;67558;52.166;5.004;2023-04-06T04:02:52;11.70;;;7.38;;
71383;SDS011;67558;52.166;5.004;2023-04-06T04:05:17;10.27;;;6.97;;
71383;SDS011;67558;52.166;5.004;2023-04-06T04:07:43;11.32;;;6.00;;
71383;SDS011;67558;52.166;5.004;2023-04-06T04:10:08;13.88;;;6.32;;
71383;SDS011;67558;52.166;5.004;2023-04-06T04:12:34;12.48;;;7.47;;
71383;SDS011;67558;52.166;5.004;2023-04-06T04:15:00;8.60;;;6.15;;
71383;SDS011;67558;52.166;5.004;2023-04-06T04:17:25;15.07;;;7.07;;
71383;SDS011;67558;52.166;5.004;2023-04-06T04:19:50;10.60;;;7.45;;
71383;SDS011;67558;52.166;5.004;2023-04-06T04:22:16;12.38;;;7.28;;
71383;SDS011;67558;52.166;5.004;2023-04-06T04:24:41;11.52;;;7.10;;
71383;SDS011;67558;52.166;5.004;2023-04-06T04:27:06;11.57;;;6.60;;
71383;SDS011;67558;52.166;5.004;2023-04-06T04:29:32;16.52;;;8.60;;
71383;SDS011;67558;52.166;5.004;2023-04-06T04:31:57;12.10;;;7.35;;
71383;SDS011;67558;52.166;5.004;2023-04-06T04:34:22;14.52;;;7.72;;
71383;SDS011;67558;52.166;5.004;2023-04-06T04:36:51;10.70;;;7.47;;
71383;SDS011;67558;52.166;5.004;2023-04-06T04:39:17;9.63;;;7.22;;
71383;SDS011;67558;52.166;5.004;2023-04-06T04:41:42;13.30;;;7.10;;
71383;SDS011;67558;52.166;5.004;2023-04-06T04:44:08;13.20;;;8.30;;
71383;SDS011;67558;52.166;5.004;2023-04-06T04:46:33;15.32;;;7.68;;
71383;SDS011;67558;52.166;5.004;2023-04-06T04:48:58;17.02;;;7.53;;
71383;SDS011;67558;52.166;5.004;2023-04-06T04:51:24;16.05;;;8.15;;
71383;SDS011;67558;52.166;5.004;2023-04-06T04:53:50;14.05;;;6.68;;
71383;SDS011;67558;52.166;5.004;2023-04-06T04:56:15;11.70;;;6.03;;
71383;SDS011;67558;52.166;5.004;2023-04-06T04:58:40;12.05;;;7.90;;
71383;SDS011;67558;52.166;5.004;2023-04-06T05:01:06;13.70;;;7.40;;
71383;SDS011;67558;52.166;5.004;2023-04-06T05:03:31;13.60;;;8.18;;
71383;SDS011;67558;52.166;5.004;2023-04-06T05:05:57;14.82;;;7.93;;
71383;SDS011;67558;52.166;5.004;2023-04-06T05:08:22;13.00;;;6.97;;
71383;SDS011;67558;52.166;5.004;2023-04-06T05:10:48;11.57;;;9.18;;
71383;SDS011;67558;52.166;5.004;2023-04-06T05:13:14;12.32;;;8.32;;
71383;SDS011;67558;52.166;5.004;2023-04-06T05:15:39;13.48;;;7.78;;
71383;SDS011;67558;52.166;5.004;2023-04-06T05:18:06;12.07;;;7.60;;
71383;SDS011;67558;52.166;5.004;2023-04-06T05:20:32;13.38;;;8.98;;
71383;SDS011;67558;52.166;5.004;2023-04-06T05:22:58;11.52;;;7.18;;
71383;SDS011;67558;52.166;5.004;2023-04-06T05:25:23;13.73;;;7.75;;
71383;SDS011;67558;52.166;5.004;2023-04-06T05:27:49;14.48;;;7.57;;
71383;SDS011;67558;52.166;5.004;2023-04-06T05:30:15;15.93;;;8.88;;
71383;SDS011;67558;52.166;5.004;2023-04-06T05:32:40;10.48;;;9.35;;
71383;SDS011;67558;52.166;5.004;2023-04-06T05:35:07;11.75;;;7.22;;
71383;SDS011;67558;52.166;5.004;2023-04-06T05:37:33;13.85;;;8.10;;
71383;SDS011;67558;52.166;5.004;2023-04-06T05:39:58;10.70;;;6.65;;
71383;SDS011;67558;52.166;5.004;2023-04-06T05:42:23;15.10;;;7.95;;
71383;SDS011;67558;52.166;5.004;2023-04-06T05:44:49;12.73;;;8.23;;
71383;SDS011;67558;52.166;5.004;2023-04-06T05:47:15;13.93;;;8.27;;
71383;SDS011;67558;52.166;5.004;2023-04-06T05:49:43;13.75;;;7.13;;
71383;SDS011;67558;52.166;5.004;2023-04-06T05:52:08;13.70;;;8.73;;
71383;SDS011;67558;52.166;5.004;2023-04-06T05:54:35;19.45;;;9.40;;
71383;SDS011;67558;52.166;5.004;2023-04-06T05:57:01;14.15;;;8.23;;
71383;SDS011;67558;52.166;5.004;2023-04-06T05:59:27;18.98;;;8.30;;
71383;SDS011;67558;52.166;5.004;2023-04-06T06:01:53;16.30;;;7.85;;
71383;SDS011;67558;52.166;5.004;2023-04-06T06:04:18;13.88;;;9.30;;
71383;SDS011;67558;52.166;5.004;2023-04-06T06:06:43;12.90;;;8.02;;
71383;SDS011;67558;52.166;5.004;2023-04-06T06:09:09;14.25;;;8.48;;
71383;SDS011;67558;52.166;5.004;2023-04-06T06:11:34;11.35;;;7.70;;
71383;SDS011;67558;52.166;5.004;2023-04-06T06:14:00;16.70;;;10.23;;
71383;SDS011;67558;52.166;5.004;2023-04-06T06:16:25;17.30;;;8.18;;
71383;SDS011;67558;52.166;5.004;2023-04-06T06:18:50;13.88;;;9.15;;
71383;SDS011;67558;52.166;5.004;2023-04-06T06:21:16;14.40;;;8.60;;
71383;SDS011;67558;52.166;5.004;2023-04-06T06:23:42;13.18;;;8.98;;
71383;SDS011;67558;52.166;5.004;2023-04-06T06:26:08;13.40;;;8.95;;
71383;SDS011;67558;52.166;5.004;2023-04-06T06:28:33;11.35;;;7.85;;
71383;SDS011;67558;52.166;5.004;2023-04-06T06:30:59;15.73;;;8.40;;
71383;SDS011;67558;52.166;5.004;2023-04-06T06:33:26;16.40;;;10.98;;
71383;SDS011;67558;52.166;5.004;2023-04-06T06:35:52;16.48;;;9.85;;
71383;SDS011;67558;52.166;5.004;2023-04-06T06:38:18;16.48;;;10.10;;
71383;SDS011;67558;52.166;5.004;2023-04-06T06:40:44;15.95;;;10.15;;
71383;SDS011;67558;52.166;5.004;2023-04-06T06:43:11;15.20;;;8.65;;
71383;SDS011;67558;52.166;5.004;2023-04-06T06:45:37;14.30;;;8.15;;
71383;SDS011;67558;52.166;5.004;2023-04-06T06:48:02;14.73;;;9.70;;
71383;SDS011;67558;52.166;5.004;2023-04-06T06:50:28;16.50;;;9.55;;
71383;SDS011;67558;52.166;5.004;2023-04-06T06:52:54;18.95;;;10.80;;
71383;SDS011;67558;52.166;5.004;2023-04-06T06:55:19;22.80;;;10.52;;
71383;SDS011;67558;52.166;5.004;2023-04-06T06:57:45;12.85;;;10.32;;
71383;SDS011;67558;52.166;5.004;2023-04-06T07:00:14;16.90;;;8.88;;
71383;SDS011;67558;52.166;5.004;2023-04-06T07:02:40;15.40;;;9.32;;
71383;SDS011;67558;52.166;5.004;2023-04-06T07:05:05;18.02;;;9.70;;
71383;SDS011;67558;52.166;5.004;2023-04-06T07:07:31;16.45;;;10.57;;
71383;SDS011;67558;52.166;5.004;2023-04-06T07:09:59;15.80;;;9.55;;
71383;SDS011;67558;52.166;5.004;2023-04-06T07:12:25;13.30;;;9.27;;
71383;SDS011;67558;52.166;5.004;2023-04-06T07:14:51;18.00;;;9.75;;
71383;SDS011;67558;52.166;5.004;2023-04-06T07:17:17;21.58;;;9.43;;
71383;SDS011;67558;52.166;5.004;2023-04-06T07:19:43;16.52;;;9.80;;
71383;SDS011;67558;52.166;5.004;2023-04-06T07:22:10;15.70;;;9.85;;
71383;SDS011;67558;52.166;5.004;2023-04-06T07:24:36;20.38;;;10.13;;
71383;SDS011;67558;52.166;5.004;2023-04-06T07:27:02;13.70;;;8.88;;
71383;SDS011;67558;52.166;5.004;2023-04-06T07:29:28;18.33;;;10.35;;
71383;SDS011;67558;52.166;5.004;2023-04-06T07:31:54;22.25;;;11.05;;
71383;SDS011;67558;52.166;5.004;2023-04-06T07:34:20;19.58;;;10.88;;
71383;SDS011;67558;52.166;5.004;2023-04-06T07:36:47;18.48;;;11.20;;
71383;SDS011;67558;52.166;5.004;2023-04-06T07:39:12;15.82;;;9.82;;
71383;SDS011;67558;52.166;5.004;2023-04-06T07:41:37;18.73;;;9.75;;
71383;SDS011;67558;52.166;5.004;2023-04-06T07:44:03;19.20;;;11.48;;
71383;SDS011;67558;52.166;5.004;2023-04-06T07:46:29;19.45;;;10.93;;
71383;SDS011;67558;52.166;5.004;2023-04-06T07:48:56;18.80;;;10.80;;
71383;SDS011;67558;52.166;5.004;2023-04-06T07:51:22;14.88;;;9.65;;
71383;SDS011;67558;52.166;5.004;2023-04-06T07:53:50;18.13;;;11.05;;
71383;SDS011;67558;52.166;5.004;2023-04-06T07:56:15;19.35;;;10.55;;
71383;SDS011;67558;52.166;5.004;2023-04-06T07:58:41;17.70;;;10.32;;
71383;SDS011;67558;52.166;5.004;2023-04-06T08:01:06;19.80;;;12.05;;
71383;SDS011;67558;52.166;5.004;2023-04-06T08:03:33;16.08;;;10.80;;
71383;SDS011;67558;52.166;5.004;2023-04-06T08:05:59;14.98;;;11.27;;
71383;SDS011;67558;52.166;5.004;2023-04-06T08:08:25;22.13;;;12.38;;
71383;SDS011;67558;52.166;5.004;2023-04-06T08:10:51;20.65;;;13.05;;
71383;SDS011;67558;52.166;5.004;2023-04-06T08:13:17;17.95;;;10.40;;
71383;SDS011;67558;52.166;5.004;2023-04-06T08:15:43;22.15;;;11.98;;
71383;SDS011;67558;52.166;5.004;2023-04-06T08:18:11;21.92;;;12.90;;
71383;SDS011;67558;52.166;5.004;2023-04-06T08:20:42;19.92;;;13.23;;
71383;SDS011;67558;52.166;5.004;2023-04-06T08:23:08;19.80;;;11.55;;
71383;SDS011;67558;52.166;5.004;2023-04-06T08:25:34;21.90;;;12.85;;
71383;SDS011;67558;52.166;5.004;2023-04-06T08:28:02;17.98;;;11.80;;
71383;SDS011;67558;52.166;5.004;2023-04-06T08:30:28;17.55;;;12.57;;
71383;SDS011;67558;52.166;5.004;2023-04-06T08:32:54;21.95;;;10.32;;
71383;SDS011;67558;52.166;5.004;2023-04-06T08:35:20;21.65;;;11.80;;
71383;SDS011;67558;52.166;5.004;2023-04-06T08:37:45;20.63;;;11.93;;
71383;SDS011;67558;52.166;5.004;2023-04-06T08:40:11;19.15;;;12.27;;
71383;SDS011;67558;52.166;5.004;2023-04-06T08:42:41;16.85;;;11.20;;
71383;SDS011;67558;52.166;5.004;2023-04-06T08:45:12;20.88;;;13.18;;
71383;SDS011;67558;52.166;5.004;2023-04-06T08:47:39;17.58;;;11.02;;
71383;SDS011;67558;52.166;5.004;2023-04-06T08:50:05;23.70;;;15.13;;
71383;SDS011;67558;52.166;5.004;2023-04-06T08:52:31;17.67;;;10.85;;
71383;SDS011;67558;52.166;5.004;2023-04-06T08:55:00;23.67;;;15.95;;
71383;SDS011;67558;52.166;5.004;2023-04-06T08:57:25;20.33;;;14.75;;
71383;SDS011;67558;52.166;5.004;2023-04-06T08:59:53;20.50;;;12.70;;
71383;SDS011;67558;52.166;5.004;2023-04-06T09:02:20;17.27;;;10.95;;
71383;SDS011;67558;52.166;5.004;2023-04-06T09:04:47;22.63;;;11.93;;
71383;SDS011;67558;52.166;5.004;2023-04-06T09:07:15;18.85;;;12.70;;
71383;SDS011;67558;52.166;5.004;2023-04-06T09:09:40;22.65;;;13.52;;
71383;SDS011;67558;52.166;5.004;2023-04-06T09:12:21;22.48;;;11.05;;
71383;SDS011;67558;52.166;5.004;2023-04-06T09:14:51;19.05;;;11.40;;
71383;SDS011;67558;52.166;5.004;2023-04-06T09:17:21;24.20;;;13.13;;
71383;SDS011;67558;52.166;5.004;2023-04-06T09:19:47;20.02;;;13.63;;
71383;SDS011;67558;52.166;5.004;2023-04-06T09:22:13;18.00;;;11.43;;
71383;SDS011;67558;52.166;5.004;2023-04-06T09:24:46;20.83;;;11.43;;
71383;SDS011;67558;52.166;5.004;2023-04-06T09:27:15;24.20;;;16.80;;
71383;SDS011;67558;52.166;5.004;2023-04-06T09:29:42;23.98;;;13.93;;
71383;SDS011;67558;52.166;5.004;2023-04-06T09:32:08;24.40;;;13.98;;
71383;SDS011;67558;52.166;5.004;2023-04-06T09:34:40;22.83;;;14.40;;
71383;SDS011;67558;52.166;5.004;2023-04-06T09:37:18;23.25;;;13.73;;
71383;SDS011;67558;52.166;5.004;2023-04-06T09:39:44;21.85;;;14.75;;
71383;SDS011;67558;52.166;5.004;2023-04-06T09:42:22;22.58;;;14.98;;
71383;SDS011;67558;52.166;5.004;2023-04-06T09:44:51;18.25;;;12.73;;
71383;SDS011;67558;52.166;5.004;2023-04-06T09:47:16;24.80;;;14.45;;
71383;SDS011;67558;52.166;5.004;2023-04-06T09:49:42;23.27;;;15.15;;
71383;SDS011;67558;52.166;5.004;2023-04-06T09:52:08;23.75;;;16.83;;
71383;SDS011;67558;52.166;5.004;2023-04-06T09:54:36;23.40;;;13.85;;
71383;SDS011;67558;52.166;5.004;2023-04-06T09:59:51;20.30;;;14.07;;
71383;SDS011;67558;52.166;5.004;2023-04-06T10:02:28;20.08;;;15.20;;
71383;SDS011;67558;52.166;5.004;2023-04-06T10:05:09;20.77;;;11.75;;
71383;SDS011;67558;52.166;5.004;2023-04-06T10:07:48;20.60;;;12.75;;
71383;SDS011;67558;52.166;5.004;2023-04-06T10:10:17;12.85;;;8.13;;
71383;SDS011;67558;52.166;5.004;2023-04-06T10:12:43;17.80;;;10.63;;
71383;SDS011;67558;52.166;5.004;2023-04-06T10:15:09;16.95;;;10.02;;
71383;SDS011;67558;52.166;5.004;2023-04-06T10:17:35;12.15;;;7.45;;
71383;SDS011;67558;52.166;5.004;2023-04-06T10:20:09;13.75;;;8.70;;
71383;SDS011;67558;52.166;5.004;2023-04-06T10:22:42;14.25;;;11.10;;
71383;SDS011;67558;52.166;5.004;2023-04-06T10:25:31;13.40;;;11.30;;
71383;SDS011;67558;52.166;5.004;2023-04-06T10:28:15;14.65;;;8.93;;
71383;SDS011;67558;52.166;5.004;2023-04-06T10:30:44;12.43;;;9.63;;
71383;SDS011;67558;52.166;5.004;2023-04-06T10:35:40;14.15;;;8.95;;
71383;SDS011;67558;52.166;5.004;2023-04-06T10:38:05;15.07;;;9.77;;
71383;SDS011;67558;52.166;5.004;2023-04-06T10:40:32;14.48;;;9.10;;
71383;SDS011;67558;52.166;5.004;2023-04-06T10:45:37;10.68;;;8.88;;
71383;SDS011;67558;52.166;5.004;2023-04-06T10:48:13;9.65;;;7.88;;
71383;SDS011;67558;52.166;5.004;2023-04-06T10:50:41;9.85;;;8.93;;
71383;SDS011;67558;52.166;5.004;2023-04-06T10:53:24;12.07;;;7.55;;
71383;SDS011;67558;52.166;5.004;2023-04-06T10:55:51;9.32;;;8.35;;
71383;SDS011;67558;52.166;5.004;2023-04-06T10:58:17;10.05;;;7.22;;
71383;SDS011;67558;52.166;5.004;2023-04-06T11:00:46;9.45;;;7.85;;
71383;SDS011;67558;52.166;5.004;2023-04-06T11:03:13;12.25;;;10.52;;
71383;SDS011;67558;52.166;5.004;2023-04-06T11:05:42;14.02;;;7.38;;
71383;SDS011;67558;52.166;5.004;2023-04-06T11:08:09;10.07;;;6.90;;
71383;SDS011;67558;52.166;5.004;2023-04-06T11:10:35;9.05;;;6.63;;
71383;SDS011;67558;52.166;5.004;2023-04-06T11:13:00;8.25;;;7.40;;
71383;SDS011;67558;52.166;5.004;2023-04-06T11:15:26;8.50;;;7.32;;
71383;SDS011;67558;52.166;5.004;2023-04-06T11:17:51;9.77;;;7.68;;
71383;SDS011;67558;52.166;5.004;2023-04-06T11:20:17;7.40;;;6.68;;
71383;SDS011;67558;52.166;5.004;2023-04-06T11:22:51;10.60;;;7.35;;
71383;SDS011;67558;52.166;5.004;2023-04-06T11:25:17;8.38;;;7.43;;
71383;SDS011;67558;52.166;5.004;2023-04-06T11:27:44;7.93;;;7.13;;
71383;SDS011;67558;52.166;5.004;2023-04-06T11:30:11;10.52;;;9.43;;
71383;SDS011;67558;52.166;5.004;2023-04-06T11:32:44;8.77;;;7.53;;
71383;SDS011;67558;52.166;5.004;2023-04-06T11:35:11;10.55;;;9.93;;
71383;SDS011;67558;52.166;5.004;2023-04-06T11:37:46;8.40;;;7.15;;
71383;SDS011;67558;52.166;5.004;2023-04-06T11:40:14;7.85;;;6.85;;
71383;SDS011;67558;52.166;5.004;2023-04-06T11:42:39;10.82;;;7.57;;
71383;SDS011;67558;52.166;5.004;2023-04-06T11:45:06;8.95;;;7.63;;
71383;SDS011;67558;52.166;5.004;2023-04-06T11:47:36;8.80;;;6.55;;
71383;SDS011;67558;52.166;5.004;2023-04-06T11:50:06;7.38;;;6.40;;
71383;SDS011;67558;52.166;5.004;2023-04-06T11:52:33;8.63;;;7.57;;
71383;SDS011;67558;52.166;5.004;2023-04-06T11:54:58;10.30;;;9.30;;
71383;SDS011;67558;52.166;5.004;2023-04-06T11:57:24;8.10;;;7.30;;
71383;SDS011;67558;52.166;5.004;2023-04-06T11:59:50;8.32;;;6.60;;
71383;SDS011;67558;52.166;5.004;2023-04-06T12:02:16;9.50;;;7.63;;
71383;SDS011;67558;52.166;5.004;2023-04-06T12:04:42;7.70;;;6.80;;
71383;SDS011;67558;52.166;5.004;2023-04-06T12:07:08;9.05;;;8.15;;
71383;SDS011;67558;52.166;5.004;2023-04-06T12:09:33;9.00;;;8.25;;
71383;SDS011;67558;52.166;5.004;2023-04-06T12:11:59;9.05;;;8.18;;
71383;SDS011;67558;52.166;5.004;2023-04-06T12:14:25;7.60;;;6.88;;
71383;SDS011;67558;52.166;5.004;2023-04-06T12:16:50;9.90;;;8.32;;
71383;SDS011;67558;52.166;5.004;2023-04-06T12:19:16;8.90;;;7.65;;
71383;SDS011;67558;52.166;5.004;2023-04-06T12:21:42;8.60;;;7.78;;
71383;SDS011;67558;52.166;5.004;2023-04-06T12:24:07;8.45;;;7.50;;
71383;SDS011;67558;52.166;5.004;2023-04-06T12:26:33;8.75;;;6.68;;
71383;SDS011;67558;52.166;5.004;2023-04-06T12:28:59;9.25;;;7.90;;
71383;SDS011;67558;52.166;5.004;2023-04-06T12:31:36;11.77;;;7.35;;
71383;SDS011;67558;52.166;5.004;2023-04-06T12:34:03;11.70;;;10.60;;
71383;SDS011;67558;52.166;5.004;2023-04-06T12:36:29;9.75;;;8.43;;
71383;SDS011;67558;52.166;5.004;2023-04-06T12:38:55;9.88;;;7.20;;
71383;SDS011;67558;52.166;5.004;2023-04-06T12:41:21;13.05;;;8.52;;
71383;SDS011;67558;52.166;5.004;2023-04-06T12:43:46;10.55;;;8.50;;
71383;SDS011;67558;52.166;5.004;2023-04-06T12:46:13;10.10;;;8.02;;
71383;SDS011;67558;52.166;5.004;2023-04-06T12:48:38;8.13;;;6.50;;
71383;SDS011;67558;52.166;5.004;2023-04-06T12:51:05;7.75;;;6.97;;
71383;SDS011;67558;52.166;5.004;2023-04-06T12:53:31;10.45;;;8.45;;
71383;SDS011;67558;52.166;5.004;2023-04-06T12:55:57;11.93;;;8.50;;
71383;SDS011;67558;52.166;5.004;2023-04-06T12:58:23;10.38;;;8.65;;
71383;SDS011;67558;52.166;5.004;2023-04-06T13:00:51;10.63;;;8.20;;
71383;SDS011;67558;52.166;5.004;2023-04-06T13:03:17;12.57;;;8.27;;
71383;SDS011;67558;52.166;5.004;2023-04-06T13:05:44;13.13;;;8.85;;
71383;SDS011;67558;52.166;5.004;2023-04-06T13:08:10;11.65;;;10.18;;
71383;SDS011;67558;52.166;5.004;2023-04-06T13:10:36;10.55;;;9.13;;
71383;SDS011;67558;52.166;5.004;2023-04-06T13:13:02;14.27;;;8.70;;
71383;SDS011;67558;52.166;5.004;2023-04-06T13:15:27;11.65;;;7.63;;
71383;SDS011;67558;52.166;5.004;2023-04-06T13:17:53;10.45;;;8.20;;
71383;SDS011;67558;52.166;5.004;2023-04-06T13:20:18;12.57;;;8.45;;
71383;SDS011;67558;52.166;5.004;2023-04-06T13:22:44;10.82;;;8.48;;
71383;SDS011;67558;52.166;5.004;2023-04-06T13:25:09;9.85;;;7.15;;
71383;SDS011;67558;52.166;5.004;2023-04-06T13:27:34;10.95;;;8.82;;
71383;SDS011;67558;52.166;5.004;2023-04-06T13:30:01;9.35;;;8.05;;
71383;SDS011;67558;52.166;5.004;2023-04-06T13:32:27;12.65;;;8.00;;
71383;SDS011;67558;52.166;5.004;2023-04-06T13:34:56;8.20;;;7.40;;
71383;SDS011;67558;52.166;5.004;2023-04-06T13:37:22;12.85;;;10.75;;
71383;SDS011;67558;52.166;5.004;2023-04-06T13:39:47;8.30;;;6.93;;
71383;SDS011;67558;52.166;5.004;2023-04-06T13:42:12;12.18;;;9.32;;
71383;SDS011;67558;52.166;5.004;2023-04-06T13:44:38;12.15;;;8.40;;
71383;SDS011;67558;52.166;5.004;2023-04-06T13:47:03;12.63;;;11.32;;
71383;SDS011;67558;52.166;5.004;2023-04-06T13:49:28;14.82;;;8.35;;
71383;SDS011;67558;52.166;5.004;2023-04-06T13:51:55;10.95;;;7.93;;
71383;SDS011;67558;52.166;5.004;2023-04-06T13:54:20;14.05;;;9.60;;
71383;SDS011;67558;52.166;5.004;2023-04-06T13:56:46;11.90;;;9.55;;
71383;SDS011;67558;52.166;5.004;2023-04-06T13:59:11;12.45;;;9.35;;
71383;SDS011;67558;52.166;5.004;2023-04-06T14:01:36;10.25;;;8.45;;
71383;SDS011;67558;52.166;5.004;2023-04-06T14:04:02;14.60;;;9.65;;
71383;SDS011;67558;52.166;5.004;2023-04-06T14:06:27;13.45;;;9.13;;
71383;SDS011;67558;52.166;5.004;2023-04-06T14:08:53;13.40;;;8.88;;
71383;SDS011;67558;52.166;5.004;2023-04-06T14:11:18;12.02;;;10.35;;
71383;SDS011;67558;52.166;5.004;2023-04-06T14:13:44;15.07;;;13.55;;
71383;SDS011;67558;52.166;5.004;2023-04-06T14:16:09;12.23;;;9.55;;
71383;SDS011;67558;52.166;5.004;2023-04-06T14:18:35;12.40;;;8.40;;
71383;SDS011;67558;52.166;5.004;2023-04-06T14:21:01;14.50;;;13.20;;
71383;SDS011;67558;52.166;5.004;2023-04-06T14:23:27;10.15;;;7.55;;
71383;SDS011;67558;52.166;5.004;2023-04-06T14:26:06;15.23;;;9.27;;
71383;SDS011;67558;52.166;5.004;2023-04-06T14:28:33;13.20;;;9.80;;
71383;SDS011;67558;52.166;5.004;2023-04-06T14:30:59;13.80;;;9.98;;
71383;SDS011;67558;52.166;5.004;2023-04-06T14:33:26;11.85;;;8.75;;
71383;SDS011;67558;52.166;5.004;2023-04-06T14:35:52;12.55;;;8.57;;
71383;SDS011;67558;52.166;5.004;2023-04-06T14:38:17;10.00;;;8.45;;